sensor_id;sensor_type;location;lat;lon;timestamp;P1;durP1;ratioP1;P2;durP2;ratioP2
52530;SDS011;38441;52.894;6.040;2023-04-25T00:01:22;17.50;;;3.22;;
52530;SDS011;38441;52.894;6.040;2023-04-25T00:03:48;11.05;;;2.70;;
52530;SDS011;38441;52.894;6.040;2023-04-25T00:06:15;9.75;;;2.50;;
52530;SDS011;38441;52.894;6.040;2023-04-25T00:08:42;10.88;;;2.58;;
52530;SDS011;38441;52.894;6.040;2023-04-25T00:11:08;8.32;;;2.78;;
52530;SDS011;38441;52.894;6.040;2023-04-25T00:13:34;9.48;;;2.40;;
52530;SDS011;38441;52.894;6.040;2023-04-25T00:16:00;9.57;;;2.65;;
52530;SDS011;38441;52.894;6.040;2023-04-25T00:18:27;11.18;;;2.75;;
52530;SDS011;38441;52.894;6.040;2023-04-25T00:20:54;10.88;;;2.45;;
52530;SDS011;38441;52.894;6.040;2023-04-25T00:23:20;10.00;;;2.60;;
52530;SDS011;38441;52.894;6.040;2023-04-25T00:25:47;11.45;;;2.67;;
52530;SDS011;38441;52.894;6.040;2023-04-25T00:28:14;10.52;;;2.58;;
52530;SDS011;38441;52.894;6.040;2023-04-25T00:30:40;13.38;;;2.60;;
52530;SDS011;38441;52.894;6.040;2023-04-25T00:33:06;10.48;;;2.85;;
52530;SDS011;38441;52.894;6.040;2023-04-25T00:35:33;9.73;;;3.03;;
52530;SDS011;38441;52.894;6.040;2023-04-25T00:37:59;13.10;;;3.45;;
52530;SDS011;38441;52.894;6.040;2023-04-25T00:40:25;9.10;;;2.88;;
52530;SDS011;38441;52.894;6.040;2023-04-25T00:42:52;11.85;;;2.58;;
52530;SDS011;38441;52.894;6.040;2023-04-25T00:45:18;7.95;;;2.67;;
52530;SDS011;38441;52.894;6.040;2023-04-25T00:47:44;9.02;;;2.00;;
52530;SDS011;38441;52.894;6.040;2023-04-25T00:50:10;10.60;;;2.33;;
52530;SDS011;38441;52.894;6.040;2023-04-25T00:52:40;13.43;;;2.92;;
52530;SDS011;38441;52.894;6.040;2023-04-25T00:57:35;10.40;;;2.53;;
52530;SDS011;38441;52.894;6.040;2023-04-25T01:00:01;11.65;;;2.58;;
52530;SDS011;38441;52.894;6.040;2023-04-25T01:02:27;11.85;;;2.78;;
52530;SDS011;38441;52.894;6.040;2023-04-25T01:04:53;8.13;;;2.38;;
52530;SDS011;38441;52.894;6.040;2023-04-25T01:07:19;8.48;;;2.58;;
52530;SDS011;38441;52.894;6.040;2023-04-25T01:09:45;8.98;;;2.42;;
52530;SDS011;38441;52.894;6.040;2023-04-25T01:12:11;7.20;;;2.78;;
52530;SDS011;38441;52.894;6.040;2023-04-25T01:14:37;10.48;;;2.78;;
52530;SDS011;38441;52.894;6.040;2023-04-25T01:17:03;12.77;;;3.03;;
52530;SDS011;38441;52.894;6.040;2023-04-25T01:19:29;9.05;;;2.55;;
52530;SDS011;38441;52.894;6.040;2023-04-25T01:21:55;11.27;;;2.38;;
52530;SDS011;38441;52.894;6.040;2023-04-25T01:24:21;9.85;;;2.60;;
52530;SDS011;38441;52.894;6.040;2023-04-25T01:26:48;13.00;;;3.08;;
52530;SDS011;38441;52.894;6.040;2023-04-25T01:29:18;10.27;;;2.35;;
52530;SDS011;38441;52.894;6.040;2023-04-25T01:31:45;8.55;;;2.63;;
52530;SDS011;38441;52.894;6.040;2023-04-25T01:34:11;9.07;;;2.40;;
52530;SDS011;38441;52.894;6.040;2023-04-25T01:36:37;10.63;;;2.10;;
52530;SDS011;38441;52.894;6.040;2023-04-25T01:39:03;12.00;;;1.95;;
52530;SDS011;38441;52.894;6.040;2023-04-25T01:41:29;11.10;;;2.20;;
52530;SDS011;38441;52.894;6.040;2023-04-25T01:43:55;7.25;;;2.42;;
52530;SDS011;38441;52.894;6.040;2023-04-25T01:46:22;8.48;;;2.10;;
52530;SDS011;38441;52.894;6.040;2023-04-25T01:48:48;11.77;;;2.22;;
52530;SDS011;38441;52.894;6.040;2023-04-25T01:51:14;9.25;;;2.10;;
52530;SDS011;38441;52.894;6.040;2023-04-25T01:53:40;6.40;;;1.33;;
52530;SDS011;38441;52.894;6.040;2023-04-25T01:56:07;9.13;;;2.53;;
52530;SDS011;38441;52.894;6.040;2023-04-25T01:58:33;10.38;;;2.03;;
52530;SDS011;38441;52.894;6.040;2023-04-25T02:00:59;8.32;;;1.77;;
52530;SDS011;38441;52.894;6.040;2023-04-25T02:03:25;11.07;;;2.22;;
52530;SDS011;38441;52.894;6.040;2023-04-25T02:05:51;8.48;;;1.67;;
52530;SDS011;38441;52.894;6.040;2023-04-25T02:08:17;13.88;;;2.20;;
52530;SDS011;38441;52.894;6.040;2023-04-25T02:10:43;8.77;;;2.30;;
52530;SDS011;38441;52.894;6.040;2023-04-25T02:13:09;15.88;;;2.25;;
52530;SDS011;38441;52.894;6.040;2023-04-25T02:15:35;11.15;;;2.10;;
52530;SDS011;38441;52.894;6.040;2023-04-25T02:18:01;10.73;;;2.05;;
52530;SDS011;38441;52.894;6.040;2023-04-25T02:20:28;9.15;;;2.08;;
52530;SDS011;38441;52.894;6.040;2023-04-25T02:22:55;12.60;;;2.22;;
52530;SDS011;38441;52.894;6.040;2023-04-25T02:25:21;11.05;;;2.05;;
52530;SDS011;38441;52.894;6.040;2023-04-25T02:27:47;14.13;;;2.50;;
52530;SDS011;38441;52.894;6.040;2023-04-25T02:30:13;9.25;;;2.05;;
52530;SDS011;38441;52.894;6.040;2023-04-25T02:32:40;10.43;;;1.63;;
52530;SDS011;38441;52.894;6.040;2023-04-25T02:35:06;11.05;;;2.20;;
52530;SDS011;38441;52.894;6.040;2023-04-25T02:37:33;8.30;;;1.98;;
52530;SDS011;38441;52.894;6.040;2023-04-25T02:40:00;9.00;;;2.20;;
52530;SDS011;38441;52.894;6.040;2023-04-25T02:42:26;9.63;;;1.80;;
52530;SDS011;38441;52.894;6.040;2023-04-25T02:44:52;7.00;;;1.10;;
52530;SDS011;38441;52.894;6.040;2023-04-25T02:47:18;8.18;;;1.33;;
52530;SDS011;38441;52.894;6.040;2023-04-25T02:49:44;11.35;;;1.88;;
52530;SDS011;38441;52.894;6.040;2023-04-25T02:52:11;5.63;;;1.35;;
52530;SDS011;38441;52.894;6.040;2023-04-25T02:54:37;7.93;;;1.42;;
52530;SDS011;38441;52.894;6.040;2023-04-25T02:57:05;6.30;;;1.00;;
52530;SDS011;38441;52.894;6.040;2023-04-25T02:59:30;8.38;;;1.17;;
52530;SDS011;38441;52.894;6.040;2023-04-25T03:01:56;9.77;;;1.20;;
52530;SDS011;38441;52.894;6.040;2023-04-25T03:04:22;5.28;;;1.17;;
52530;SDS011;38441;52.894;6.040;2023-04-25T03:06:49;10.45;;;1.85;;
52530;SDS011;38441;52.894;6.040;2023-04-25T03:09:15;6.43;;;1.10;;
52530;SDS011;38441;52.894;6.040;2023-04-25T03:11:41;7.93;;;1.52;;
52530;SDS011;38441;52.894;6.040;2023-04-25T03:14:07;8.15;;;1.52;;
52530;SDS011;38441;52.894;6.040;2023-04-25T03:16:33;5.32;;;1.10;;
52530;SDS011;38441;52.894;6.040;2023-04-25T03:18:59;7.60;;;1.33;;
52530;SDS011;38441;52.894;6.040;2023-04-25T03:21:25;8.40;;;1.63;;
52530;SDS011;38441;52.894;6.040;2023-04-25T03:23:51;7.50;;;1.30;;
52530;SDS011;38441;52.894;6.040;2023-04-25T03:26:18;12.15;;;1.58;;
52530;SDS011;38441;52.894;6.040;2023-04-25T03:28:44;7.78;;;1.30;;
52530;SDS011;38441;52.894;6.040;2023-04-25T03:31:10;8.32;;;1.35;;
52530;SDS011;38441;52.894;6.040;2023-04-25T03:33:35;10.02;;;1.67;;
52530;SDS011;38441;52.894;6.040;2023-04-25T03:36:02;5.88;;;1.38;;
52530;SDS011;38441;52.894;6.040;2023-04-25T03:38:28;6.53;;;1.40;;
52530;SDS011;38441;52.894;6.040;2023-04-25T03:40:54;5.50;;;1.05;;
52530;SDS011;38441;52.894;6.040;2023-04-25T03:43:21;6.38;;;1.50;;
52530;SDS011;38441;52.894;6.040;2023-04-25T03:45:47;2.50;;;0.73;;
52530;SDS011;38441;52.894;6.040;2023-04-25T03:48:13;8.02;;;1.45;;
52530;SDS011;38441;52.894;6.040;2023-04-25T03:50:39;8.23;;;1.33;;
52530;SDS011;38441;52.894;6.040;2023-04-25T03:53:05;6.03;;;0.93;;
52530;SDS011;38441;52.894;6.040;2023-04-25T03:55:31;9.48;;;1.30;;
52530;SDS011;38441;52.894;6.040;2023-04-25T03:57:57;8.05;;;1.25;;
52530;SDS011;38441;52.894;6.040;2023-04-25T04:00:24;9.02;;;1.70;;
52530;SDS011;38441;52.894;6.040;2023-04-25T04:02:50;5.50;;;1.52;;
52530;SDS011;38441;52.894;6.040;2023-04-25T04:05:16;7.90;;;0.90;;
52530;SDS011;38441;52.894;6.040;2023-04-25T04:07:42;6.82;;;1.33;;
52530;SDS011;38441;52.894;6.040;2023-04-25T04:10:09;9.27;;;1.77;;
52530;SDS011;38441;52.894;6.040;2023-04-25T04:12:35;9.35;;;2.00;;
52530;SDS011;38441;52.894;6.040;2023-04-25T04:15:02;7.68;;;1.30;;
52530;SDS011;38441;52.894;6.040;2023-04-25T04:17:28;5.93;;;1.40;;
52530;SDS011;38441;52.894;6.040;2023-04-25T04:19:55;7.63;;;1.10;;
52530;SDS011;38441;52.894;6.040;2023-04-25T04:22:21;6.70;;;1.15;;
52530;SDS011;38441;52.894;6.040;2023-04-25T04:24:48;11.52;;;1.92;;
52530;SDS011;38441;52.894;6.040;2023-04-25T04:27:15;7.70;;;1.20;;
52530;SDS011;38441;52.894;6.040;2023-04-25T04:29:42;9.88;;;1.33;;
52530;SDS011;38441;52.894;6.040;2023-04-25T04:32:08;7.05;;;1.50;;
52530;SDS011;38441;52.894;6.040;2023-04-25T04:34:34;13.32;;;1.52;;
52530;SDS011;38441;52.894;6.040;2023-04-25T04:37:01;7.05;;;1.77;;
52530;SDS011;38441;52.894;6.040;2023-04-25T04:39:27;5.55;;;1.67;;
52530;SDS011;38441;52.894;6.040;2023-04-25T04:41:53;7.38;;;1.45;;
52530;SDS011;38441;52.894;6.040;2023-04-25T04:44:19;7.25;;;1.20;;
52530;SDS011;38441;52.894;6.040;2023-04-25T04:46:45;11.15;;;1.50;;
52530;SDS011;38441;52.894;6.040;2023-04-25T04:49:11;7.63;;;1.55;;
52530;SDS011;38441;52.894;6.040;2023-04-25T04:51:38;4.97;;;1.13;;
52530;SDS011;38441;52.894;6.040;2023-04-25T04:54:09;8.97;;;1.47;;
52530;SDS011;38441;52.894;6.040;2023-04-25T04:56:35;9.30;;;1.73;;
52530;SDS011;38441;52.894;6.040;2023-04-25T04:59:01;8.13;;;2.15;;
52530;SDS011;38441;52.894;6.040;2023-04-25T05:01:28;7.72;;;1.80;;
52530;SDS011;38441;52.894;6.040;2023-04-25T05:03:55;6.90;;;1.55;;
52530;SDS011;38441;52.894;6.040;2023-04-25T05:06:25;9.23;;;1.90;;
52530;SDS011;38441;52.894;6.040;2023-04-25T05:08:51;4.95;;;1.65;;
52530;SDS011;38441;52.894;6.040;2023-04-25T05:11:20;7.72;;;1.55;;
52530;SDS011;38441;52.894;6.040;2023-04-25T05:13:46;8.85;;;1.48;;
52530;SDS011;38441;52.894;6.040;2023-04-25T05:16:12;9.13;;;1.67;;
52530;SDS011;38441;52.894;6.040;2023-04-25T05:18:39;8.63;;;2.33;;
52530;SDS011;38441;52.894;6.040;2023-04-25T05:21:05;7.60;;;2.08;;
52530;SDS011;38441;52.894;6.040;2023-04-25T05:23:31;6.50;;;1.25;;
52530;SDS011;38441;52.894;6.040;2023-04-25T05:25:57;9.32;;;1.58;;
52530;SDS011;38441;52.894;6.040;2023-04-25T05:28:23;7.47;;;1.33;;
52530;SDS011;38441;52.894;6.040;2023-04-25T05:30:49;6.18;;;0.93;;
52530;SDS011;38441;52.894;6.040;2023-04-25T05:33:15;5.35;;;0.93;;
52530;SDS011;38441;52.894;6.040;2023-04-25T05:35:41;7.10;;;1.30;;
52530;SDS011;38441;52.894;6.040;2023-04-25T05:38:07;6.30;;;1.17;;
52530;SDS011;38441;52.894;6.040;2023-04-25T05:40:34;5.65;;;1.25;;
52530;SDS011;38441;52.894;6.040;2023-04-25T05:43:00;7.53;;;1.10;;
52530;SDS011;38441;52.894;6.040;2023-04-25T05:45:26;5.55;;;1.17;;
52530;SDS011;38441;52.894;6.040;2023-04-25T05:47:52;5.95;;;1.20;;
52530;SDS011;38441;52.894;6.040;2023-04-25T05:50:18;6.45;;;1.80;;
52530;SDS011;38441;52.894;6.040;2023-04-25T05:52:44;10.27;;;1.38;;
52530;SDS011;38441;52.894;6.040;2023-04-25T05:55:10;12.80;;;2.03;;
52530;SDS011;38441;52.894;6.040;2023-04-25T05:57:36;10.50;;;1.90;;
52530;SDS011;38441;52.894;6.040;2023-04-25T06:00:02;6.22;;;1.42;;
52530;SDS011;38441;52.894;6.040;2023-04-25T06:04:59;4.70;;;1.10;;
52530;SDS011;38441;52.894;6.040;2023-04-25T06:07:28;7.38;;;1.17;;
52530;SDS011;38441;52.894;6.040;2023-04-25T06:09:55;9.95;;;1.92;;
52530;SDS011;38441;52.894;6.040;2023-04-25T06:12:21;8.88;;;1.95;;
52530;SDS011;38441;52.894;6.040;2023-04-25T06:14:47;4.65;;;1.20;;
52530;SDS011;38441;52.894;6.040;2023-04-25T06:17:13;7.68;;;1.15;;
52530;SDS011;38441;52.894;6.040;2023-04-25T06:19:39;5.22;;;1.10;;
52530;SDS011;38441;52.894;6.040;2023-04-25T06:22:05;7.28;;;1.20;;
52530;SDS011;38441;52.894;6.040;2023-04-25T06:24:32;6.50;;;1.67;;
52530;SDS011;38441;52.894;6.040;2023-04-25T06:26:58;7.25;;;1.20;;
52530;SDS011;38441;52.894;6.040;2023-04-25T06:29:25;6.93;;;1.40;;
52530;SDS011;38441;52.894;6.040;2023-04-25T06:31:51;13.15;;;2.95;;
52530;SDS011;38441;52.894;6.040;2023-04-25T06:34:17;6.10;;;1.77;;
52530;SDS011;38441;52.894;6.040;2023-04-25T06:36:43;11.63;;;1.90;;
52530;SDS011;38441;52.894;6.040;2023-04-25T06:39:09;7.93;;;1.83;;
52530;SDS011;38441;52.894;6.040;2023-04-25T06:41:36;11.57;;;1.85;;
52530;SDS011;38441;52.894;6.040;2023-04-25T06:44:02;7.10;;;1.55;;
52530;SDS011;38441;52.894;6.040;2023-04-25T06:46:28;8.95;;;1.70;;
52530;SDS011;38441;52.894;6.040;2023-04-25T06:48:54;11.50;;;2.40;;
52530;SDS011;38441;52.894;6.040;2023-04-25T06:51:20;8.77;;;2.20;;
52530;SDS011;38441;52.894;6.040;2023-04-25T06:53:46;12.32;;;3.22;;
52530;SDS011;38441;52.894;6.040;2023-04-25T06:56:12;6.43;;;1.42;;
52530;SDS011;38441;52.894;6.040;2023-04-25T06:58:38;5.32;;;1.25;;
52530;SDS011;38441;52.894;6.040;2023-04-25T07:01:04;6.50;;;1.42;;
52530;SDS011;38441;52.894;6.040;2023-04-25T07:03:30;5.32;;;1.60;;
52530;SDS011;38441;52.894;6.040;2023-04-25T07:05:56;4.68;;;1.08;;
52530;SDS011;38441;52.894;6.040;2023-04-25T07:08:22;8.27;;;1.83;;
52530;SDS011;38441;52.894;6.040;2023-04-25T07:10:48;6.72;;;1.10;;
52530;SDS011;38441;52.894;6.040;2023-04-25T07:13:14;5.63;;;0.98;;
52530;SDS011;38441;52.894;6.040;2023-04-25T07:15:40;8.65;;;2.63;;
52530;SDS011;38441;52.894;6.040;2023-04-25T07:18:07;7.53;;;1.20;;
52530;SDS011;38441;52.894;6.040;2023-04-25T07:20:33;5.10;;;1.25;;
52530;SDS011;38441;52.894;6.040;2023-04-25T07:22:59;7.68;;;1.27;;
52530;SDS011;38441;52.894;6.040;2023-04-25T07:25:25;7.18;;;1.00;;
52530;SDS011;38441;52.894;6.040;2023-04-25T07:27:51;5.75;;;1.08;;
52530;SDS011;38441;52.894;6.040;2023-04-25T07:30:17;7.90;;;1.35;;
52530;SDS011;38441;52.894;6.040;2023-04-25T07:32:43;6.35;;;1.00;;
52530;SDS011;38441;52.894;6.040;2023-04-25T07:35:10;7.85;;;1.23;;
52530;SDS011;38441;52.894;6.040;2023-04-25T07:37:36;10.20;;;1.20;;
52530;SDS011;38441;52.894;6.040;2023-04-25T07:40:02;5.82;;;1.50;;
52530;SDS011;38441;52.894;6.040;2023-04-25T07:42:29;5.20;;;1.00;;
52530;SDS011;38441;52.894;6.040;2023-04-25T07:44:55;7.15;;;1.02;;
52530;SDS011;38441;52.894;6.040;2023-04-25T07:47:21;5.75;;;1.52;;
52530;SDS011;38441;52.894;6.040;2023-04-25T07:49:47;9.07;;;1.52;;
52530;SDS011;38441;52.894;6.040;2023-04-25T07:52:13;7.82;;;1.58;;
52530;SDS011;38441;52.894;6.040;2023-04-25T07:54:39;3.53;;;1.30;;
52530;SDS011;38441;52.894;6.040;2023-04-25T07:57:05;6.13;;;1.63;;
52530;SDS011;38441;52.894;6.040;2023-04-25T07:59:31;5.47;;;1.30;;
52530;SDS011;38441;52.894;6.040;2023-04-25T08:01:57;4.72;;;1.13;;
52530;SDS011;38441;52.894;6.040;2023-04-25T08:04:24;5.18;;;1.15;;
52530;SDS011;38441;52.894;6.040;2023-04-25T08:06:50;3.97;;;1.17;;
52530;SDS011;38441;52.894;6.040;2023-04-25T08:09:17;3.50;;;0.70;;
52530;SDS011;38441;52.894;6.040;2023-04-25T08:11:43;3.22;;;0.70;;
52530;SDS011;38441;52.894;6.040;2023-04-25T08:14:11;6.22;;;0.90;;
52530;SDS011;38441;52.894;6.040;2023-04-25T08:16:37;5.00;;;1.02;;
52530;SDS011;38441;52.894;6.040;2023-04-25T08:19:03;5.47;;;1.13;;
52530;SDS011;38441;52.894;6.040;2023-04-25T08:21:29;8.45;;;1.20;;
52530;SDS011;38441;52.894;6.040;2023-04-25T08:23:56;7.60;;;1.20;;
52530;SDS011;38441;52.894;6.040;2023-04-25T08:26:23;5.93;;;1.27;;
52530;SDS011;38441;52.894;6.040;2023-04-25T08:28:49;7.53;;;1.40;;
52530;SDS011;38441;52.894;6.040;2023-04-25T08:31:15;6.97;;;1.23;;
52530;SDS011;38441;52.894;6.040;2023-04-25T08:33:42;4.55;;;0.95;;
52530;SDS011;38441;52.894;6.040;2023-04-25T08:36:08;5.15;;;0.50;;
52530;SDS011;38441;52.894;6.040;2023-04-25T08:38:34;3.60;;;0.80;;
52530;SDS011;38441;52.894;6.040;2023-04-25T08:41:01;2.15;;;0.50;;
52530;SDS011;38441;52.894;6.040;2023-04-25T08:43:28;3.55;;;0.77;;
52530;SDS011;38441;52.894;6.040;2023-04-25T08:45:54;3.03;;;0.80;;
52530;SDS011;38441;52.894;6.040;2023-04-25T08:48:24;8.25;;;1.00;;
52530;SDS011;38441;52.894;6.040;2023-04-25T08:50:51;5.97;;;1.00;;
52530;SDS011;38441;52.894;6.040;2023-04-25T08:53:23;3.75;;;1.00;;
52530;SDS011;38441;52.894;6.040;2023-04-25T08:55:55;10.02;;;1.58;;
52530;SDS011;38441;52.894;6.040;2023-04-25T08:58:22;5.65;;;1.10;;
52530;SDS011;38441;52.894;6.040;2023-04-25T09:00:49;6.28;;;1.17;;
52530;SDS011;38441;52.894;6.040;2023-04-25T09:03:15;8.50;;;1.38;;
52530;SDS011;38441;52.894;6.040;2023-04-25T09:05:42;5.43;;;1.08;;
52530;SDS011;38441;52.894;6.040;2023-04-25T09:08:08;7.03;;;1.00;;
52530;SDS011;38441;52.894;6.040;2023-04-25T09:10:34;4.15;;;1.40;;
52530;SDS011;38441;52.894;6.040;2023-04-25T09:13:07;4.43;;;0.85;;
52530;SDS011;38441;52.894;6.040;2023-04-25T09:15:47;6.18;;;1.13;;
52530;SDS011;38441;52.894;6.040;2023-04-25T09:18:21;5.82;;;1.58;;
52530;SDS011;38441;52.894;6.040;2023-04-25T09:20:48;6.00;;;1.08;;
52530;SDS011;38441;52.894;6.040;2023-04-25T09:23:14;5.07;;;1.00;;
52530;SDS011;38441;52.894;6.040;2023-04-25T09:25:40;4.93;;;1.15;;
52530;SDS011;38441;52.894;6.040;2023-04-25T09:28:08;6.57;;;1.35;;
52530;SDS011;38441;52.894;6.040;2023-04-25T09:30:35;6.05;;;1.13;;
52530;SDS011;38441;52.894;6.040;2023-04-25T09:33:05;4.88;;;1.60;;
52530;SDS011;38441;52.894;6.040;2023-04-25T09:35:38;3.22;;;0.70;;
52530;SDS011;38441;52.894;6.040;2023-04-25T09:40:42;6.78;;;1.45;;
52530;SDS011;38441;52.894;6.040;2023-04-25T09:43:19;7.80;;;1.33;;
52530;SDS011;38441;52.894;6.040;2023-04-25T09:45:48;8.25;;;1.48;;
52530;SDS011;38441;52.894;6.040;2023-04-25T09:48:20;11.65;;;1.30;;
52530;SDS011;38441;52.894;6.040;2023-04-25T09:51:05;6.38;;;1.00;;
52530;SDS011;38441;52.894;6.040;2023-04-25T09:53:33;6.82;;;1.00;;
52530;SDS011;38441;52.894;6.040;2023-04-25T09:56:04;4.57;;;1.10;;
52530;SDS011;38441;52.894;6.040;2023-04-25T09:58:31;4.57;;;0.70;;
52530;SDS011;38441;52.894;6.040;2023-04-25T10:00:59;2.92;;;0.70;;
52530;SDS011;38441;52.894;6.040;2023-04-25T10:03:31;3.45;;;0.93;;
52530;SDS011;38441;52.894;6.040;2023-04-25T10:06:00;5.93;;;0.70;;
52530;SDS011;38441;52.894;6.040;2023-04-25T10:08:33;5.68;;;1.10;;
52530;SDS011;38441;52.894;6.040;2023-04-25T10:11:01;6.03;;;1.17;;
52530;SDS011;38441;52.894;6.040;2023-04-25T10:13:32;8.70;;;1.20;;
52530;SDS011;38441;52.894;6.040;2023-04-25T10:15:59;5.55;;;1.00;;
52530;SDS011;38441;52.894;6.040;2023-04-25T10:18:26;4.43;;;0.95;;
52530;SDS011;38441;52.894;6.040;2023-04-25T10:20:56;3.88;;;0.85;;
52530;SDS011;38441;52.894;6.040;2023-04-25T10:23:24;3.28;;;0.88;;
52530;SDS011;38441;52.894;6.040;2023-04-25T10:25:52;5.65;;;1.17;;
52530;SDS011;38441;52.894;6.040;2023-04-25T10:28:18;6.38;;;1.15;;
52530;SDS011;38441;52.894;6.040;2023-04-25T10:31:01;8.35;;;1.08;;
52530;SDS011;38441;52.894;6.040;2023-04-25T10:33:40;7.07;;;1.13;;
52530;SDS011;38441;52.894;6.040;2023-04-25T10:36:09;6.45;;;1.13;;
52530;SDS011;38441;52.894;6.040;2023-04-25T10:38:35;5.15;;;0.70;;
52530;SDS011;38441;52.894;6.040;2023-04-25T10:41:05;5.38;;;1.20;;
52530;SDS011;38441;52.894;6.040;2023-04-25T10:43:35;4.43;;;0.90;;
52530;SDS011;38441;52.894;6.040;2023-04-25T10:46:18;4.40;;;0.80;;
52530;SDS011;38441;52.894;6.040;2023-04-25T10:48:45;7.13;;;1.73;;
52530;SDS011;38441;52.894;6.040;2023-04-25T10:51:19;5.20;;;1.10;;
52530;SDS011;38441;52.894;6.040;2023-04-25T10:53:48;7.22;;;1.00;;
52530;SDS011;38441;52.894;6.040;2023-04-25T10:56:26;2.63;;;1.05;;
52530;SDS011;38441;52.894;6.040;2023-04-25T10:59:10;7.05;;;1.15;;
52530;SDS011;38441;52.894;6.040;2023-04-25T11:01:43;4.53;;;1.10;;
52530;SDS011;38441;52.894;6.040;2023-04-25T11:04:22;7.43;;;0.93;;
52530;SDS011;38441;52.894;6.040;2023-04-25T11:06:58;6.47;;;1.27;;
52530;SDS011;38441;52.894;6.040;2023-04-25T11:09:28;7.38;;;1.05;;
52530;SDS011;38441;52.894;6.040;2023-04-25T11:11:55;8.45;;;0.93;;
52530;SDS011;38441;52.894;6.040;2023-04-25T11:14:23;3.90;;;0.98;;
52530;SDS011;38441;52.894;6.040;2023-04-25T11:16:58;3.58;;;0.75;;
52530;SDS011;38441;52.894;6.040;2023-04-25T11:19:25;5.45;;;1.50;;
52530;SDS011;38441;52.894;6.040;2023-04-25T11:21:54;8.63;;;1.30;;
52530;SDS011;38441;52.894;6.040;2023-04-25T11:24:25;6.88;;;1.02;;
52530;SDS011;38441;52.894;6.040;2023-04-25T11:26:54;5.47;;;0.70;;
52530;SDS011;38441;52.894;6.040;2023-04-25T11:29:23;7.60;;;0.70;;
52530;SDS011;38441;52.894;6.040;2023-04-25T11:31:52;5.68;;;0.80;;
52530;SDS011;38441;52.894;6.040;2023-04-25T11:34:21;9.07;;;1.38;;
52530;SDS011;38441;52.894;6.040;2023-04-25T11:36:47;7.18;;;0.98;;
52530;SDS011;38441;52.894;6.040;2023-04-25T11:39:13;7.45;;;1.30;;
52530;SDS011;38441;52.894;6.040;2023-04-25T11:41:40;8.05;;;1.13;;
52530;SDS011;38441;52.894;6.040;2023-04-25T11:44:06;5.93;;;0.90;;
52530;SDS011;38441;52.894;6.040;2023-04-25T11:46:35;8.65;;;0.95;;
52530;SDS011;38441;52.894;6.040;2023-04-25T11:49:01;5.60;;;0.82;;
52530;SDS011;38441;52.894;6.040;2023-04-25T11:51:28;5.72;;;1.00;;
52530;SDS011;38441;52.894;6.040;2023-04-25T11:53:53;6.43;;;0.80;;
52530;SDS011;38441;52.894;6.040;2023-04-25T11:56:20;5.03;;;0.70;;
52530;SDS011;38441;52.894;6.040;2023-04-25T11:58:58;3.78;;;0.70;;
52530;SDS011;38441;52.894;6.040;2023-04-25T12:01:29;5.93;;;0.85;;
52530;SDS011;38441;52.894;6.040;2023-04-25T12:03:56;5.45;;;0.57;;
52530;SDS011;38441;52.894;6.040;2023-04-25T12:06:25;2.42;;;0.65;;
52530;SDS011;38441;52.894;6.040;2023-04-25T12:09:02;3.20;;;0.50;;
52530;SDS011;38441;52.894;6.040;2023-04-25T12:11:32;2.25;;;0.47;;
52530;SDS011;38441;52.894;6.040;2023-04-25T12:14:05;6.07;;;1.00;;
52530;SDS011;38441;52.894;6.040;2023-04-25T12:16:45;5.63;;;0.88;;
52530;SDS011;38441;52.894;6.040;2023-04-25T12:19:14;3.13;;;0.80;;
52530;SDS011;38441;52.894;6.040;2023-04-25T12:21:41;6.03;;;1.25;;
52530;SDS011;38441;52.894;6.040;2023-04-25T12:24:15;5.90;;;0.90;;
52530;SDS011;38441;52.894;6.040;2023-04-25T12:26:46;9.27;;;0.93;;
52530;SDS011;38441;52.894;6.040;2023-04-25T12:29:21;6.97;;;1.10;;
52530;SDS011;38441;52.894;6.040;2023-04-25T12:34:15;7.10;;;0.95;;
52530;SDS011;38441;52.894;6.040;2023-04-25T12:36:41;3.67;;;0.90;;
52530;SDS011;38441;52.894;6.040;2023-04-25T12:39:07;8.43;;;0.85;;
52530;SDS011;38441;52.894;6.040;2023-04-25T12:41:33;7.90;;;1.23;;
52530;SDS011;38441;52.894;6.040;2023-04-25T12:43:59;7.47;;;1.10;;
52530;SDS011;38441;52.894;6.040;2023-04-25T12:46:25;5.43;;;1.00;;
52530;SDS011;38441;52.894;6.040;2023-04-25T12:48:51;4.47;;;0.88;;
52530;SDS011;38441;52.894;6.040;2023-04-25T12:51:16;4.75;;;0.68;;
52530;SDS011;38441;52.894;6.040;2023-04-25T12:53:42;4.20;;;0.50;;
52530;SDS011;38441;52.894;6.040;2023-04-25T12:56:08;6.93;;;0.80;;
52530;SDS011;38441;52.894;6.040;2023-04-25T12:58:34;5.13;;;0.63;;
52530;SDS011;38441;52.894;6.040;2023-04-25T13:01:01;4.47;;;0.95;;
52530;SDS011;38441;52.894;6.040;2023-04-25T13:03:27;5.75;;;0.80;;
52530;SDS011;38441;52.894;6.040;2023-04-25T13:05:52;3.35;;;0.65;;
52530;SDS011;38441;52.894;6.040;2023-04-25T13:08:18;4.18;;;0.60;;
52530;SDS011;38441;52.894;6.040;2023-04-25T13:10:44;5.15;;;0.80;;
52530;SDS011;38441;52.894;6.040;2023-04-25T13:13:10;5.65;;;1.02;;
52530;SDS011;38441;52.894;6.040;2023-04-25T13:15:36;7.88;;;1.00;;
52530;SDS011;38441;52.894;6.040;2023-04-25T13:18:05;3.92;;;0.85;;
52530;SDS011;38441;52.894;6.040;2023-04-25T13:20:31;3.05;;;0.77;;
52530;SDS011;38441;52.894;6.040;2023-04-25T13:22:57;2.40;;;0.75;;
52530;SDS011;38441;52.894;6.040;2023-04-25T13:25:23;5.30;;;0.80;;
52530;SDS011;38441;52.894;6.040;2023-04-25T13:27:49;7.65;;;1.00;;
52530;SDS011;38441;52.894;6.040;2023-04-25T13:30:15;6.45;;;1.00;;
52530;SDS011;38441;52.894;6.040;2023-04-25T13:32:41;10.57;;;1.52;;
52530;SDS011;38441;52.894;6.040;2023-04-25T13:35:07;8.90;;;2.00;;
52530;SDS011;38441;52.894;6.040;2023-04-25T13:37:35;7.20;;;1.08;;
52530;SDS011;38441;52.894;6.040;2023-04-25T13:40:01;5.13;;;0.90;;
52530;SDS011;38441;52.894;6.040;2023-04-25T13:42:34;6.80;;;0.80;;
52530;SDS011;38441;52.894;6.040;2023-04-25T13:45:00;5.60;;;0.95;;
52530;SDS011;38441;52.894;6.040;2023-04-25T13:47:27;6.50;;;1.40;;
52530;SDS011;38441;52.894;6.040;2023-04-25T13:49:53;4.55;;;0.80;;
52530;SDS011;38441;52.894;6.040;2023-04-25T13:52:19;5.85;;;0.90;;
52530;SDS011;38441;52.894;6.040;2023-04-25T13:54:45;4.55;;;0.70;;
52530;SDS011;38441;52.894;6.040;2023-04-25T13:57:11;4.85;;;1.02;;
52530;SDS011;38441;52.894;6.040;2023-04-25T13:59:37;5.28;;;1.15;;
52530;SDS011;38441;52.894;6.040;2023-04-25T14:02:03;4.32;;;1.30;;
52530;SDS011;38441;52.894;6.040;2023-04-25T14:04:29;4.75;;;1.90;;
52530;SDS011;38441;52.894;6.040;2023-04-25T14:06:56;5.13;;;1.42;;
52530;SDS011;38441;52.894;6.040;2023-04-25T14:09:21;6.30;;;1.30;;
52530;SDS011;38441;52.894;6.040;2023-04-25T14:11:51;7.40;;;1.15;;
52530;SDS011;38441;52.894;6.040;2023-04-25T14:14:17;4.85;;;0.80;;
52530;SDS011;38441;52.894;6.040;2023-04-25T14:16:43;5.80;;;1.25;;
52530;SDS011;38441;52.894;6.040;2023-04-25T14:19:09;6.00;;;0.98;;
52530;SDS011;38441;52.894;6.040;2023-04-25T14:21:35;12.52;;;1.35;;
52530;SDS011;38441;52.894;6.040;2023-04-25T14:24:01;4.60;;;1.17;;
52530;SDS011;38441;52.894;6.040;2023-04-25T14:26:26;6.95;;;1.35;;
52530;SDS011;38441;52.894;6.040;2023-04-25T14:28:52;4.28;;;0.80;;
52530;SDS011;38441;52.894;6.040;2023-04-25T14:31:18;4.55;;;1.00;;
52530;SDS011;38441;52.894;6.040;2023-04-25T14:33:44;5.43;;;0.90;;
52530;SDS011;38441;52.894;6.040;2023-04-25T14:36:10;4.32;;;1.02;;
52530;SDS011;38441;52.894;6.040;2023-04-25T14:38:36;5.95;;;0.80;;
52530;SDS011;38441;52.894;6.040;2023-04-25T14:41:02;8.52;;;0.75;;
52530;SDS011;38441;52.894;6.040;2023-04-25T14:43:28;4.20;;;0.57;;
52530;SDS011;38441;52.894;6.040;2023-04-25T14:45:54;4.78;;;0.90;;
52530;SDS011;38441;52.894;6.040;2023-04-25T14:48:19;9.50;;;1.00;;
52530;SDS011;38441;52.894;6.040;2023-04-25T14:50:46;7.10;;;0.70;;
52530;SDS011;38441;52.894;6.040;2023-04-25T14:53:11;5.85;;;1.05;;
52530;SDS011;38441;52.894;6.040;2023-04-25T14:55:38;3.22;;;0.57;;